METAR Data
IDs: Format: Raw Decoded Include TAF

Data at: 0745 UTC 03 Aug 2021

KSNA 030653Z AUTO 22003KT 10SM CLR 21/16 A2997 RMK AO2 SLP149 T02060161
KSNA 030553Z 22004KT 10SM CLR 21/16 A2997 RMK AO2 SLP147 T02110156 10311 20211 51008
KSNA 030453Z 22004KT 10SM CLR 22/16 A2997 RMK AO2 SLP146 T02220156
KSNA 030353Z 20005KT 10SM CLR 23/16 A2996 RMK AO2 SLP143 T02280156
KSNA 030253Z 22005KT 10SM CLR 25/14 A2995 RMK AO2 SLP139 T02500139 53005
KSNA 030153Z 22006KT 10SM CLR 27/14 A2994 RMK AO2 SLP137 T02670139
KSNA 030053Z 22007KT 10SM CLR 29/13 A2993 RMK AO2 SLP135 T02890133
KSNA 022353Z 22006KT 10SM CLR 31/12 A2993 RMK AO2 SLP134 T03110117 10311 20272 58015
KSNA 022253Z 22008KT 10SM CLR 30/13 A2994 RMK AO2 SLP138 T03000133
KSNA 022153Z 22010KT 10SM FEW032 30/14 A2997 RMK AO2 SLP146 FU FEW032 T03000144
KSNA 022053Z 21008KT 10SM FEW032 31/14 A2998 RMK AO2 SLP149 FU FEW032 T03060144 56017
KSNA 021953Z VRB04KT 10SM CLR 29/14 A2999 RMK AO2 SLP154 T02940144
KSNA 021853Z 20009KT 10SM CLR 29/16 A3001 RMK AO2 SLP160 T02890156
KSNA 021753Z 20008KT 10SM CLR 28/16 A3003 RMK AO2 SLP166 T02780161 10278 20189 58010
KSNA 021653Z VRB04KT 10SM CLR 26/16 A3004 RMK AO2 SLP170 T02560161
KSNA 021553Z 15003KT 10SM CLR 23/16 A3005 RMK AO2 SLP175 T02330161
KSNA 021453Z 22004KT 10SM CLR 21/16 A3006 RMK AO2 SLP176 T02110161 51013 $
KSNA 021353Z 20004KT 10SM CLR 19/16 A3005 RMK AO2 SLP173 T01940161 $
KSNA 021253Z 17003KT 10SM CLR 19/16 A3003 RMK AO2 SLP168 T01890156
KSNA 021153Z AUTO 20003KT 10SM CLR 19/15 A3002 RMK AO2 SLP163 T01890150 10206 20189 53001
KSNA 021053Z AUTO 23003KT 10SM CLR 19/14 A3001 RMK AO2 SLP160 T01940144
KSNA 020953Z AUTO 19005KT 10SM CLR 19/14 A3001 RMK AO2 SLP162 T01940144
KSNA 020853Z AUTO 22003KT 10SM CLR 20/14 A3002 RMK AO2 SLP163 T02000144 55003
KSNA 020753Z AUTO 20004KT 10SM CLR 20/14 A3001 RMK AO2 SLP162 T02000139 402830183
KSNA 020653Z AUTO 18005KT 10SM CLR 20/14 A3002 RMK AO2 SLP164 T02000144
KSNA 020553Z 20004KT 10SM CLR 21/14 A3002 RMK AO2 SLP165 LAST T02060139 10278 20206 50010
KSNA 020453Z 22006KT 10SM CLR 22/13 A3003 RMK AO2 SLP166 T02170133
KSNA 020353Z 23005KT 10SM CLR 23/14 A3000 RMK AO2 SLP159 T02280144
KSNA 020253Z 23005KT 10SM CLR 24/14 A2999 RMK AO2 SLP155 T02440144 53000
KSNA 020153Z 22005KT 10SM CLR 26/15 A2998 RMK AO2 SLP151 T02610150
KSNA 020053Z 27005KT 10SM FEW039 27/15 A2998 RMK AO2 SLP150 T02720150
KSNA 012353Z 22008KT 10SM FEW039 28/15 A2999 RMK AO2 SLP155 T02780150 10283 20261 58008
KSNA 012253Z 26006KT 10SM FEW039 27/15 A3001 RMK AO2 SLP160 T02720150
KSNA 012153Z 20010KT 10SM FEW039 27/14 A3002 RMK AO2 SLP163 T02720144
KSNA 012053Z 21009KT 10SM CLR 28/16 A3002 RMK AO2 SLP164 T02780161 58011
KSNA 011953Z 21008KT 10SM CLR 27/16 A3003 RMK AO2 SLP167 T02720156